Time;durP1;ratioP1;P1;durP2;ratioP2;P2;SDS_P1;SDS_P2;PMS_P1;PMS_P2;Temp;Humidity;BMP_temperature;BMP_pressure;BME280_temperature;BME280_humidity;BME280_pressure;Samples;Min_cycle;Max_cycle;Signal;HPM_P1;HPM_P2
2023/04/11 00:00:58;;;;;;;;;59.75;50.00;;;;;11.16;50.47;99440.81;5073026;28;8884;-80
2023/04/11 00:03:29;;;;;;;;;65.25;53.50;;;;;11.23;50.22;99438.88;5089359;28;9587;-78
2023/04/11 00:05:58;;;;;;;;;63.50;51.00;;;;;11.17;50.58;99441.66;5041244;28;8854;-76
2023/04/11 00:08:27;;;;;;;;;66.75;55.00;;;;;11.30;50.41;99434.34;5089653;28;8862;-76
2023/04/11 00:10:55;;;;;;;;;68.25;52.75;;;;;11.13;50.55;99440.88;5071371;28;8868;-75
2023/04/11 00:13:25;;;;;;;;;64.00;51.25;;;;;11.16;50.70;99432.03;5104201;28;8831;-76
2023/04/11 00:15:54;;;;;;;;;66.25;54.00;;;;;11.15;50.62;99425.91;5092776;28;8860;-76
2023/04/11 00:18:24;;;;;;;;;70.00;55.00;;;;;11.12;50.53;99426.03;5089337;28;8892;-76
2023/04/11 00:20:54;;;;;;;;;64.25;53.50;;;;;11.11;50.55;99419.00;5040149;28;8844;-76
2023/04/11 00:23:23;;;;;;;;;65.00;54.25;;;;;11.12;50.49;99438.28;5040891;28;8871;-75
2023/04/11 00:25:52;;;;;;;;;66.75;53.75;;;;;10.97;50.87;99431.63;5091516;28;8871;-76
2023/04/11 00:28:21;;;;;;;;;68.25;53.75;;;;;10.97;50.97;99434.25;5045505;28;8882;-74
2023/04/11 00:30:50;;;;;;;;;68.00;54.00;;;;;11.01;50.63;99427.16;5090019;28;8902;-78
2023/04/11 00:33:19;;;;;;;;;63.50;52.25;;;;;10.96;50.87;99428.16;5073520;28;8859;-75
2023/04/11 00:35:48;;;;;;;;;66.75;54.00;;;;;10.50;52.19;99431.84;5027034;28;8880;-76
2023/04/11 00:38:19;;;;;;;;;66.75;53.50;;;;;10.55;51.87;99422.06;5072585;28;8843;-77
2023/04/11 00:40:47;;;;;;;;;67.75;54.25;;;;;10.64;51.68;99417.50;5109427;28;8867;-77
2023/04/11 00:43:16;;;;;;;;;71.00;56.75;;;;;10.64;52.08;99422.78;5040604;28;8840;-77
2023/04/11 00:45:45;;;;;;;;;67.25;54.25;;;;;10.37;52.96;99420.72;5088660;28;8928;-76
2023/04/11 00:48:15;;;;;;;;;64.25;52.00;;;;;10.54;52.45;99422.13;5091037;28;8852;-76
2023/04/11 00:50:44;;;;;;;;;64.50;52.50;;;;;10.65;52.28;99427.09;5066336;28;8908;-78
2023/04/11 00:53:13;;;;;;;;;67.25;53.75;;;;;10.55;52.59;99424.69;5085367;28;9586;-78
2023/04/11 00:55:43;;;;;;;;;67.25;53.00;;;;;10.45;53.00;99430.22;5079189;28;8848;-76
2023/04/11 00:58:12;;;;;;;;;64.75;53.25;;;;;10.53;52.53;99428.25;5090890;28;8916;-76
2023/04/11 01:00:41;;;;;;;;;68.25;54.00;;;;;10.56;52.74;99420.31;5076295;28;8870;-75
2023/04/11 01:03:10;;;;;;;;;60.75;49.50;;;;;10.64;52.78;99421.00;5057091;28;8828;-76
2023/04/11 01:05:40;;;;;;;;;62.75;51.75;;;;;10.71;52.37;99419.97;5110154;28;9585;-76
2023/04/11 01:08:09;;;;;;;;;68.25;55.25;;;;;10.67;52.51;99425.31;5092575;28;8851;-76
2023/04/11 01:10:39;;;;;;;;;66.00;54.50;;;;;10.70;52.75;99425.25;5075365;28;8898;-75
2023/04/11 01:13:10;;;;;;;;;64.50;53.00;;;;;10.66;52.65;99426.22;5075473;28;8819;-78
2023/04/11 01:15:39;;;;;;;;;64.00;52.00;;;;;10.67;52.79;99418.31;5109301;28;8916;-77
2023/04/11 01:18:08;;;;;;;;;63.00;50.50;;;;;10.74;53.01;99414.63;5055649;28;8893;-77
2023/04/11 01:20:38;;;;;;;;;65.00;53.25;;;;;9.79;55.98;99421.94;5065607;28;8912;-75
2023/04/11 01:23:09;;;;;;;;;70.75;54.00;;;;;10.19;54.30;99415.88;5081054;28;8900;-75
2023/04/11 01:25:39;;;;;;;;;63.75;52.00;;;;;9.95;55.35;99410.25;5093050;28;8893;-78
2023/04/11 01:28:08;;;;;;;;;62.25;49.50;;;;;10.10;54.64;99406.41;5088566;28;8955;-76
2023/04/11 01:30:37;;;;;;;;;63.25;51.00;;;;;10.20;54.22;99407.97;5092666;28;9980;-79
2023/04/11 01:33:06;;;;;;;;;60.00;49.25;;;;;10.15;54.45;99401.94;5069850;28;8882;-77
2023/04/11 01:35:35;;;;;;;;;62.25;50.50;;;;;10.31;53.99;99404.22;5074266;28;8854;-76
2023/04/11 01:38:05;;;;;;;;;67.25;50.75;;;;;10.38;53.86;99398.78;5031991;28;8847;-77
2023/04/11 01:40:34;;;;;;;;;45.50;37.00;;;;;10.45;53.98;99403.94;5076097;28;8848;-76
2023/04/11 01:43:07;;;;;;;;;63.00;50.00;;;;;10.59;53.81;99409.72;5091515;28;8870;-77
2023/04/11 01:45:36;;;;;;;;;57.50;48.00;;;;;10.65;53.68;99406.97;5100357;28;8879;-76
2023/04/11 01:48:07;;;;;;;;;58.75;49.00;;;;;10.59;53.44;99400.09;5088534;28;8854;-76
2023/04/11 01:50:36;;;;;;;;;56.50;45.25;;;;;10.22;54.79;99400.06;5087139;28;8863;-75
2023/04/11 01:53:05;;;;;;;;;58.75;47.50;;;;;10.33;54.76;99402.41;5090153;28;8871;-78
2023/04/11 01:55:33;;;;;;;;;64.75;49.75;;;;;10.30;54.64;99405.13;5090347;28;8836;-77
2023/04/11 01:58:02;;;;;;;;;58.75;48.50;;;;;10.37;54.35;99397.06;5073201;28;9470;-80
2023/04/11 02:00:35;;;;;;;;;55.50;42.25;;;;;10.45;54.47;99398.69;5096322;28;8870;-76
2023/04/11 02:03:05;;;;;;;;;54.00;44.00;;;;;10.31;54.53;99398.97;5107956;28;8958;-77
2023/04/11 02:05:38;;;;;;;;;54.25;46.00;;;;;10.38;54.27;99390.06;5089953;28;8848;-76
2023/04/11 02:08:07;;;;;;;;;62.25;48.75;;;;;10.29;54.45;99383.25;5055520;28;8856;-75
2023/04/11 02:10:36;;;;;;;;;51.25;43.75;;;;;10.39;54.55;99381.28;5089858;28;8886;-75
2023/04/11 02:13:05;;;;;;;;;52.75;44.00;;;;;10.36;54.23;99378.72;5089889;28;9616;-76
2023/04/11 02:15:35;;;;;;;;;58.50;48.25;;;;;10.45;54.12;99378.50;5106823;28;9594;-75
2023/04/11 02:18:04;;;;;;;;;53.25;40.50;;;;;10.51;53.86;99377.50;5073329;28;8874;-78
2023/04/11 02:20:33;;;;;;;;;57.75;47.75;;;;;10.56;53.73;99373.88;5108001;28;8859;-76
2023/04/11 02:23:03;;;;;;;;;53.25;44.00;;;;;10.59;54.00;99375.53;5108115;28;9702;-75
2023/04/11 02:25:32;;;;;;;;;60.00;48.25;;;;;10.65;53.59;99364.91;5092147;28;9706;-76
2023/04/11 02:28:01;;;;;;;;;59.50;48.25;;;;;10.67;53.36;99365.72;5043306;28;9626;-81
2023/04/11 02:30:30;;;;;;;;;60.50;47.00;;;;;10.52;53.70;99363.44;5085062;28;8842;-78
2023/04/11 02:33:00;;;;;;;;;56.50;44.25;;;;;10.59;53.67;99359.78;5092366;28;8850;-76
2023/04/11 02:35:29;;;;;;;;;54.00;45.00;;;;;10.71;53.22;99359.50;5089386;28;8848;-76
2023/04/11 02:38:01;;;;;;;;;57.00;46.00;;;;;10.57;53.23;99359.81;5057237;28;8846;-77
2023/04/11 02:40:30;;;;;;;;;57.50;47.25;;;;;10.46;53.41;99355.72;5048425;28;8867;-77
2023/04/11 02:43:00;;;;;;;;;56.50;47.00;;;;;10.46;53.61;99351.31;5093873;28;8840;-77
2023/04/11 02:45:30;;;;;;;;;51.00;43.50;;;;;10.44;53.68;99352.25;5072113;28;8999;-76
2023/04/11 02:48:02;;;;;;;;;59.00;47.25;;;;;10.42;53.59;99341.78;5073233;28;8876;-76
2023/04/11 02:50:35;;;;;;;;;55.00;44.50;;;;;10.32;53.67;99342.91;5031949;28;8862;-77
2023/04/11 02:53:04;;;;;;;;;64.00;49.00;;;;;10.33;53.62;99337.63;5016018;28;8858;-75
2023/04/11 02:55:33;;;;;;;;;61.75;46.75;;;;;10.32;53.66;99330.63;5032326;28;8980;-74
2023/04/11 02:58:02;;;;;;;;;61.50;49.25;;;;;10.34;53.49;99328.81;5028140;28;8963;-74
2023/04/11 03:00:31;;;;;;;;;59.75;50.50;;;;;10.10;54.35;99325.00;5025286;28;8856;-75
2023/04/11 03:03:06;;;;;;;;;56.75;48.00;;;;;10.19;54.00;99324.78;5008465;28;8850;-75
2023/04/11 03:05:41;;;;;;;;;56.50;47.75;;;;;10.21;53.72;99322.97;4964932;28;8888;-77
2023/04/11 03:08:10;;;;;;;;;61.75;50.50;;;;;10.21;53.48;99322.13;4940768;28;8867;-77
2023/04/11 03:10:45;;;;;;;;;60.25;50.25;;;;;10.12;53.63;99323.22;4988619;28;8878;-76
2023/04/11 03:13:14;;;;;;;;;59.75;49.00;;;;;10.07;53.83;99322.44;4972437;28;8876;-81
2023/04/11 03:15:43;;;;;;;;;55.25;45.50;;;;;9.99;53.87;99313.91;4967702;28;8855;-77
2023/04/11 03:18:14;;;;;;;;;38.50;27.50;;;;;9.95;54.07;99313.09;4937116;28;8858;-77
2023/04/11 03:20:45;;;;;;;;;60.50;48.50;;;;;9.87;53.99;99304.50;4957030;28;9617;-78
2023/04/11 03:23:16;;;;;;;;;61.75;49.00;;;;;9.86;53.85;99299.28;4995135;28;8986;-79
2023/04/11 03:25:46;;;;;;;;;90.33;72.33;;;;;9.79;54.14;99294.16;4994946;28;8912;-76
2023/04/11 03:28:18;;;;;;;;;79.25;60.25;;;;;9.75;54.28;99305.66;5011266;28;9221;-75
2023/04/11 03:30:47;;;;;;;;;68.50;55.50;;;;;9.74;54.23;99305.66;4977977;28;8876;-77
2023/04/11 03:33:22;;;;;;;;;63.25;51.50;;;;;9.69;54.27;99312.75;5011885;28;8853;-76
2023/04/11 03:35:50;;;;;;;;;61.00;50.00;;;;;9.65;54.40;99321.59;4999796;28;8860;-78
2023/04/11 03:38:20;;;;;;;;;65.00;49.00;;;;;9.57;54.48;99313.91;5089387;28;8877;-75
2023/04/11 03:40:49;;;;;;;;;59.50;47.75;;;;;9.50;54.73;99314.88;5054489;28;8849;-76
2023/04/11 03:43:21;;;;;;;;;61.50;50.75;;;;;9.50;54.72;99313.13;5070941;28;8953;-75
2023/04/11 03:45:52;;;;;;;;;68.25;54.50;;;;;9.48;54.75;99308.78;5082700;28;8857;-77
2023/04/11 03:48:42;;;;;;;;;79.00;61.00;;;;;9.50;54.67;99307.91;5070560;28;8903;-77
2023/04/11 03:51:11;;;;;;;;;79.50;60.25;;;;;9.41;54.80;99311.56;5054090;28;8857;-76
2023/04/11 03:53:56;;;;;;;;;54.25;43.50;;;;;9.42;54.78;99299.28;5065094;28;8859;-76
2023/04/11 03:56:35;;;;;;;;;56.00;45.50;;;;;9.41;54.87;99308.06;5045879;28;8859;-77
2023/04/11 03:59:04;;;;;;;;;53.00;45.50;;;;;9.42;54.77;99302.81;5090941;28;9208;-76
2023/04/11 04:01:46;;;;;;;;;82.25;65.25;;;;;9.49;54.63;99302.66;5071772;28;8861;-76
2023/04/11 04:04:16;;;;;;;;;68.25;54.00;;;;;9.55;54.42;99305.16;5072333;28;8842;-75
2023/04/11 04:06:55;;;;;;;;;47.75;40.00;;;;;9.61;54.23;99295.44;5075279;28;8952;-79
2023/04/11 04:09:32;;;;;;;;;55.00;46.75;;;;;9.68;54.02;99297.94;5091338;28;9546;-76
2023/04/11 04:12:00;;;;;;;;;60.75;48.50;;;;;9.65;53.93;99295.38;5091616;28;8844;-75
2023/04/11 04:14:46;;;;;;;;;69.25;55.75;;;;;9.68;53.96;99285.66;5090495;28;8864;-75
2023/04/11 04:17:17;;;;;;;;;63.00;51.75;;;;;9.69;54.06;99291.78;5075151;28;8851;-77
2023/04/11 04:19:48;;;;;;;;;67.00;53.25;;;;;9.81;53.67;99291.53;5041352;28;8875;-77
2023/04/11 04:22:17;;;;;;;;;62.00;52.50;;;;;9.82;53.41;99291.50;5075227;28;8942;-75
2023/04/11 04:24:56;;;;;;;;;85.00;66.67;;;;;9.87;53.36;99282.66;5075413;28;8839;-77
2023/04/11 04:27:32;;;;;;;;;81.25;61.25;;;;;9.91;53.09;99294.81;5069966;28;9505;-78
2023/04/11 04:30:02;;;;;;;;;66.50;52.75;;;;;9.90;53.05;99290.47;5012414;28;8860;-76
2023/04/11 04:32:53;;;;;;;;;56.75;48.75;;;;;9.92;52.77;99289.53;5053122;28;8864;-76
2023/04/11 04:35:26;;;;;;;;;63.50;47.00;;;;;10.01;52.75;99298.97;5052863;28;8848;-78
2023/04/11 04:38:05;;;;;;;;;58.50;48.50;;;;;9.99;52.42;99296.38;5071607;28;8869;-77
2023/04/11 04:40:48;;;;;;;;;62.00;50.75;;;;;10.08;52.38;99297.91;5072507;28;8988;-80
2023/04/11 04:43:22;;;;;;;;;56.75;48.50;;;;;10.20;52.08;99294.16;5069847;28;8876;-77
2023/04/11 04:46:10;;;;;;;;;60.25;50.00;;;;;10.17;51.71;99302.09;5065430;28;9659;-76
2023/04/11 04:48:45;;;;;;;;;66.75;51.25;;;;;9.93;52.07;99301.78;5017190;28;9029;-76
2023/04/11 04:51:15;;;;;;;;;62.50;49.25;;;;;9.90;51.99;99306.22;5049335;28;8875;-79
2023/04/11 04:53:45;;;;;;;;;61.75;48.75;;;;;10.08;52.01;99304.94;5049488;28;8864;-75
2023/04/11 04:56:15;;;;;;;;;60.75;49.50;;;;;10.11;51.93;99310.13;5049574;28;8886;-76
2023/04/11 04:58:47;;;;;;;;;60.50;49.25;;;;;10.16;51.97;99298.63;5042430;28;8903;-81
2023/04/11 05:01:19;;;;;;;;;59.75;48.75;;;;;10.21;51.30;99301.97;5067958;28;8911;-79
2023/04/11 05:03:57;;;;;;;;;52.25;41.00;;;;;10.30;51.14;99310.56;5068971;28;8875;-77
2023/04/11 05:06:44;;;;;;;;;66.25;50.50;;;;;10.23;51.18;99308.97;5052878;28;9739;-76
2023/04/11 05:09:15;;;;;;;;;59.25;49.25;;;;;9.89;52.08;99312.34;5052784;28;8884;-77
2023/04/11 05:11:44;;;;;;;;;61.00;48.00;;;;;10.01;51.66;99314.72;5068921;28;8857;-76
2023/04/11 05:14:13;;;;;;;;;59.50;49.25;;;;;9.86;52.07;99320.28;5067348;28;8852;-77
2023/04/11 05:16:43;;;;;;;;;58.00;48.00;;;;;9.98;52.17;99318.25;5064517;28;8984;-75
2023/04/11 05:19:11;;;;;;;;;63.50;52.25;;;;;9.64;52.65;99323.38;5079308;28;8855;-77
2023/04/11 05:21:46;;;;;;;;;57.50;46.25;;;;;9.98;52.14;99320.88;5074468;28;9070;-78
2023/04/11 05:24:15;;;;;;;;;56.25;46.25;;;;;10.02;51.79;99316.44;5039606;28;9586;-77
2023/04/11 05:26:45;;;;;;;;;68.50;50.50;;;;;10.09;51.48;99318.03;5090167;28;9036;-77
2023/04/11 05:29:17;;;;;;;;;67.25;49.25;;;;;10.05;51.65;99320.75;5071165;28;8836;-75
2023/04/11 05:31:46;;;;;;;;;57.75;48.00;;;;;9.85;51.67;99318.56;5085004;28;8974;-76
2023/04/11 05:34:15;;;;;;;;;63.50;48.75;;;;;9.79;51.78;99319.56;5090347;28;8832;-77
2023/04/11 05:36:49;;;;;;;;;55.50;43.75;;;;;9.97;51.37;99329.69;5072228;28;8850;-76
2023/04/11 05:39:18;;;;;;;;;65.00;50.75;;;;;10.11;51.39;99324.09;5073923;28;8886;-77
2023/04/11 05:41:47;;;;;;;;;56.25;48.25;;;;;10.07;51.40;99329.47;5090743;28;8866;-76
2023/04/11 05:44:16;;;;;;;;;59.25;49.50;;;;;9.55;52.63;99327.00;5088816;28;9653;-77
2023/04/11 05:46:45;;;;;;;;;59.50;48.00;;;;;9.75;51.70;99331.88;5087771;28;8830;-79
2023/04/11 05:49:13;;;;;;;;;52.25;45.25;;;;;9.79;52.22;99328.31;5091032;28;8861;-77
2023/04/11 05:51:43;;;;;;;;;58.75;46.50;;;;;9.36;53.37;99330.91;5014177;28;9572;-78
2023/04/11 05:54:15;;;;;;;;;58.25;46.50;;;;;9.78;52.62;99330.94;5059202;28;8862;-78
2023/04/11 05:56:43;;;;;;;;;55.75;44.25;;;;;9.94;51.93;99329.72;5026880;28;8858;-78
2023/04/11 05:59:12;;;;;;;;;56.25;46.75;;;;;9.78;51.91;99331.84;5065315;28;8848;-75
2023/04/11 06:01:41;;;;;;;;;55.75;43.25;;;;;9.43;53.21;99332.53;5069412;28;8850;-76
2023/04/11 06:04:10;;;;;;;;;63.75;51.25;;;;;9.61;52.79;99329.56;5098359;28;8858;-75
2023/04/11 06:06:40;;;;;;;;;59.00;48.00;;;;;9.79;52.13;99315.19;5071403;28;8838;-77
2023/04/11 06:09:09;;;;;;;;;56.25;47.50;;;;;10.12;51.45;99325.84;5053326;28;8880;-77
2023/04/11 06:11:41;;;;;;;;;53.75;44.75;;;;;9.50;52.73;99331.50;5088032;28;8830;-75
2023/04/11 06:14:10;;;;;;;;;56.50;48.00;;;;;9.58;53.03;99326.13;5053200;28;8869;-78
2023/04/11 06:16:39;;;;;;;;;60.00;49.00;;;;;9.09;54.35;99327.91;5069959;28;8842;-77
2023/04/11 06:19:07;;;;;;;;;55.25;45.25;;;;;9.20;53.73;99315.47;5072813;28;8898;-78
2023/04/11 06:21:36;;;;;;;;;56.75;46.75;;;;;9.55;53.30;99327.00;5037148;28;8857;-77
2023/04/11 06:24:10;;;;;;;;;62.25;47.50;;;;;8.64;56.09;99320.81;5071461;28;8873;-78
2023/04/11 06:26:39;;;;;;;;;53.75;45.50;;;;;8.39;56.76;99316.88;5071762;28;9046;-78
2023/04/11 06:29:09;;;;;;;;;54.75;43.50;;;;;8.88;54.38;99323.91;5070183;28;8837;-76
2023/04/11 06:31:40;;;;;;;;;51.25;38.75;;;;;8.24;57.09;99321.41;5069388;28;8862;-77
2023/04/11 06:34:09;;;;;;;;;61.50;49.00;;;;;8.73;56.22;99316.34;5075208;28;8867;-79
2023/04/11 06:36:41;;;;;;;;;58.00;47.25;;;;;8.02;58.37;99322.63;5096373;28;8961;-78
2023/04/11 06:39:10;;;;;;;;;64.50;53.25;;;;;8.76;56.24;99327.63;5087783;28;8832;-76
2023/04/11 06:41:39;;;;;;;;;60.50;48.25;;;;;8.79;55.93;99321.47;5105615;28;8864;-76
2023/04/11 06:44:09;;;;;;;;;61.50;49.75;;;;;8.54;56.28;99326.25;5035302;28;8888;-78
2023/04/11 06:46:38;;;;;;;;;64.25;50.50;;;;;7.98;58.23;99323.56;5052710;28;8842;-76
2023/04/11 06:49:08;;;;;;;;;64.50;53.50;;;;;8.33;57.49;99323.06;5035663;28;8888;-77
2023/04/11 06:51:37;;;;;;;;;60.25;49.00;;;;;8.43;57.40;99322.03;5086715;28;8828;-76
2023/04/11 06:54:06;;;;;;;;;70.00;55.00;;;;;8.69;56.88;99309.41;5072615;28;8866;-76
2023/04/11 06:56:35;;;;;;;;;61.75;51.75;;;;;7.84;59.50;99314.13;5089502;28;8879;-77
2023/04/11 06:59:04;;;;;;;;;60.50;50.25;;;;;7.73;60.06;99308.19;5107786;28;8847;-80
2023/04/11 07:01:36;;;;;;;;;60.50;50.75;;;;;8.25;58.81;99304.84;5089384;28;8847;-77
2023/04/11 07:04:06;;;;;;;;;69.25;51.75;;;;;8.17;58.23;99311.06;5089300;28;8827;-77
2023/04/11 07:06:35;;;;;;;;;63.00;49.75;;;;;7.97;59.66;99309.59;5107665;28;8851;-75
2023/04/11 07:09:05;;;;;;;;;63.75;49.75;;;;;7.93;59.23;99307.94;5072269;28;8894;-78
2023/04/11 07:11:34;;;;;;;;;69.00;54.25;;;;;8.24;58.87;99304.84;5040375;28;8975;-79
2023/04/11 07:14:03;;;;;;;;;65.00;51.25;;;;;8.27;59.05;99297.81;5111386;28;8851;-77
2023/04/11 07:16:32;;;;;;;;;62.00;50.00;;;;;8.22;58.67;99293.53;5092935;28;8847;-78
2023/04/11 07:19:02;;;;;;;;;67.50;52.50;;;;;8.16;59.07;99306.72;5093599;28;8886;-78
2023/04/11 07:21:31;;;;;;;;;64.25;50.75;;;;;7.83;60.78;99301.94;5093055;28;8860;-78
2023/04/11 07:24:00;;;;;;;;;59.00;47.75;;;;;8.11;59.83;99298.94;5092916;28;8847;-76
2023/04/11 07:26:31;;;;;;;;;58.25;48.50;;;;;8.55;58.12;99302.63;5093103;28;8860;-79
2023/04/11 07:29:00;;;;;;;;;62.00;51.25;;;;;8.32;59.54;99297.75;5092800;28;8855;-80
2023/04/11 07:31:29;;;;;;;;;71.00;57.00;;;;;8.42;59.33;99303.72;5058270;28;8867;-76
2023/04/11 07:33:58;;;;;;;;;75.50;56.50;;;;;8.57;58.70;99297.38;5095134;28;8959;-77
2023/04/11 07:36:30;;;;;;;;;67.25;53.00;;;;;8.02;60.12;99299.06;5095266;28;8872;-77
2023/04/11 07:38:59;;;;;;;;;58.75;47.75;;;;;7.88;59.62;99292.28;5060165;28;8869;-77
2023/04/11 07:41:28;;;;;;;;;74.00;57.00;;;;;8.17;59.50;99298.81;5092533;28;8832;-75
2023/04/11 07:43:57;;;;;;;;;60.75;50.00;;;;;8.35;59.13;99291.63;5092837;28;8877;-78
2023/04/11 07:46:26;;;;;;;;;65.25;49.25;;;;;8.37;59.46;99285.47;5111365;28;8848;-77
2023/04/11 07:48:55;;;;;;;;;61.25;49.25;;;;;8.06;60.40;99283.31;5058459;28;8882;-77
2023/04/11 07:51:25;;;;;;;;;58.75;49.00;;;;;8.50;58.65;99273.03;5092712;28;8859;-77
2023/04/11 07:53:55;;;;;;;;;57.50;45.25;;;;;8.26;58.73;99271.66;5092508;28;8928;-76
2023/04/11 07:56:24;;;;;;;;;62.00;50.00;;;;;8.40;59.19;99268.81;5041883;28;8831;-79
2023/04/11 07:58:53;;;;;;;;;64.00;50.50;;;;;8.92;58.72;99267.91;5090038;28;8854;-79
2023/04/11 08:01:23;;;;;;;;;61.00;49.00;;;;;9.45;57.61;99259.88;5072794;28;8922;-78
2023/04/11 08:03:53;;;;;;;;;52.50;45.25;;;;;10.23;55.32;99261.69;5039213;28;8989;-80
2023/04/11 08:06:23;;;;;;;;;57.00;47.00;;;;;10.29;54.86;99256.28;5056422;28;8857;-79
2023/04/11 08:08:52;;;;;;;;;66.00;50.75;;;;;9.82;55.60;99251.25;5090195;28;8830;-76
2023/04/11 08:11:22;;;;;;;;;52.50;44.00;;;;;9.07;56.42;99261.53;5098991;28;8976;-77
2023/04/11 08:13:51;;;;;;;;;46.00;42.00;;;;;9.07;57.32;99252.81;5091996;28;8857;-79
2023/04/11 08:16:20;;;;;;;;;53.25;44.00;;;;;9.33;57.30;99249.63;5090637;28;8850;-78
2023/04/11 08:18:49;;;;;;;;;53.50;43.50;;;;;9.11;57.55;99254.47;5090049;28;8842;-77
2023/04/11 08:21:18;;;;;;;;;57.75;47.00;;;;;9.18;58.13;99254.31;5090261;28;8865;-77
2023/04/11 08:23:46;;;;;;;;;34.25;31.25;;;;;8.96;58.92;99246.00;5071325;28;8869;-76
2023/04/11 08:26:16;;;;;;;;;53.00;43.75;;;;;9.63;57.24;99245.56;5071453;28;8850;-78
2023/04/11 08:28:47;;;;;;;;;59.25;46.25;;;;;9.82;56.38;99238.13;5055012;28;8853;-76
2023/04/11 08:31:16;;;;;;;;;59.25;48.75;;;;;9.89;56.42;99234.44;5090190;28;8834;-78
2023/04/11 08:33:45;;;;;;;;;55.75;46.25;;;;;10.19;55.86;99224.13;5071302;28;8845;-78
2023/04/11 08:36:14;;;;;;;;;55.00;47.00;;;;;10.23;55.18;99223.13;5021430;28;8845;-77
2023/04/11 08:38:43;;;;;;;;;57.75;47.75;;;;;10.47;54.45;99223.44;5083888;28;8866;-78
2023/04/11 08:41:13;;;;;;;;;56.50;46.75;;;;;9.82;56.20;99228.50;5091667;28;8862;-78
2023/04/11 08:43:43;;;;;;;;;59.75;49.25;;;;;9.95;56.00;99226.44;5091402;28;8855;-80
2023/04/11 08:46:13;;;;;;;;;51.25;44.00;;;;;10.90;53.79;99210.03;5046156;28;9007;-76
2023/04/11 08:48:42;;;;;;;;;55.25;44.25;;;;;11.37;52.77;99213.06;5029963;28;8981;-78
2023/04/11 08:51:13;;;;;;;;;56.25;46.00;;;;;10.57;54.31;99215.25;5029396;28;9060;-78
2023/04/11 08:53:43;;;;;;;;;54.25;43.25;;;;;10.52;54.06;99208.38;5029468;28;8881;-77
2023/04/11 08:56:16;;;;;;;;;59.25;48.25;;;;;10.46;54.83;99205.94;5046296;28;8858;-77
2023/04/11 08:58:45;;;;;;;;;55.00;44.75;;;;;11.44;53.08;99195.31;5029903;28;8859;-77
2023/04/11 09:01:30;;;;;;;;;56.75;45.75;;;;;11.11;53.62;99194.56;5046374;28;8850;-77
2023/04/11 09:04:03;;;;;;;;;55.75;47.00;;;;;10.61;54.71;99197.63;5030260;28;8996;-76
2023/04/11 09:06:33;;;;;;;;;57.50;47.50;;;;;10.83;54.22;99197.09;5047114;28;8865;-77
2023/04/11 09:09:05;;;;;;;;;56.75;45.50;;;;;10.27;55.42;99201.13;5046581;28;8850;-76
2023/04/11 09:11:52;;;;;;;;;59.75;47.25;;;;;10.37;53.91;99207.03;5030054;28;8842;-79
2023/04/11 09:14:25;;;;;;;;;54.25;44.50;;;;;10.58;53.81;99205.63;5046089;28;8866;-77
2023/04/11 09:17:00;;;;;;;;;57.75;47.75;;;;;10.79;54.16;99201.59;5031910;28;8832;-79
2023/04/11 09:19:30;;;;;;;;;58.75;46.75;;;;;10.26;56.30;99188.91;5109061;28;8935;-75
2023/04/11 09:22:01;;;;;;;;;60.50;48.00;;;;;9.98;57.06;99197.47;5109052;28;9577;-76
2023/04/11 09:24:30;;;;;;;;;58.00;47.25;;;;;9.79;57.50;99202.28;5069862;28;9650;-77
2023/04/11 09:27:07;;;;;;;;;45.00;39.75;;;;;10.07;57.58;99187.66;5088727;28;8845;-77
2023/04/11 09:29:40;;;;;;;;;61.00;49.00;;;;;10.16;57.78;99183.03;5069933;28;8957;-78
2023/04/11 09:32:27;;;;;;;;;56.00;46.25;;;;;10.58;56.01;99174.09;5088519;28;8919;-79
2023/04/11 09:35:09;;;;;;;;;59.75;49.00;;;;;10.81;54.70;99159.47;5053872;28;8996;-76
2023/04/11 09:37:46;;;;;;;;;52.50;43.75;;;;;10.15;56.59;99152.41;5070499;28;8954;-77
2023/04/11 09:40:16;;;;;;;;;52.25;42.75;;;;;10.33;55.57;99147.56;5088567;28;8853;-77
2023/04/11 09:42:46;;;;;;;;;55.50;43.25;;;;;10.73;54.47;99134.25;5070209;28;8869;-77
2023/04/11 09:45:19;;;;;;;;;55.00;45.25;;;;;11.12;52.50;99130.50;5087976;28;8850;-77
2023/04/11 09:47:51;;;;;;;;;56.25;46.00;;;;;11.09;52.79;99131.47;5059500;28;8868;-77
2023/04/11 09:50:20;;;;;;;;;44.50;39.75;;;;;10.84;53.37;99144.47;5065624;28;8868;-77
2023/04/11 09:52:51;;;;;;;;;46.00;40.75;;;;;10.46;54.59;99143.72;5049115;28;8855;-78
2023/04/11 09:55:22;;;;;;;;;51.00;39.00;;;;;10.46;54.47;99143.72;5049145;28;8856;-77
2023/04/11 09:57:53;;;;;;;;;59.00;44.00;;;;;10.66;54.23;99140.56;5069788;28;8833;-76
2023/04/11 10:00:28;;;;;;;;;52.00;43.50;;;;;10.79;54.26;99141.09;5051805;28;8945;-78
2023/04/11 10:02:58;;;;;;;;;58.25;46.50;;;;;10.94;54.25;99137.19;5065609;28;9107;-78
2023/04/11 10:05:29;;;;;;;;;57.00;43.75;;;;;11.28;52.86;99131.78;5065394;28;8853;-77
2023/04/11 10:08:04;;;;;;;;;50.25;43.50;;;;;11.03;53.04;99128.16;5048851;28;9067;-76
2023/04/11 10:10:34;;;;;;;;;50.75;41.75;;;;;11.53;51.44;99115.22;5049006;28;8896;-80
2023/04/11 10:13:03;;;;;;;;;54.00;43.75;;;;;11.46;52.18;99111.91;5064938;28;9004;-77
2023/04/11 10:15:32;;;;;;;;;52.75;43.50;;;;;11.05;52.39;99119.31;5064837;28;8853;-81
2023/04/11 10:18:12;;;;;;;;;49.25;40.75;;;;;11.54;51.60;99115.19;5064674;28;8872;-78
2023/04/11 10:20:43;;;;;;;;;44.75;38.50;;;;;11.13;52.06;99113.81;5010726;28;8870;-77
2023/04/11 10:23:14;;;;;;;;;52.25;41.25;;;;;11.32;52.04;99107.09;5027998;28;8893;-77
2023/04/11 10:25:51;;;;;;;;;40.25;35.50;;;;;11.30;52.50;99098.38;5028080;28;8874;-80
2023/04/11 10:28:31;;;;;;;;;49.75;40.00;;;;;10.88;53.72;99104.03;5027716;28;8862;-78
2023/04/11 10:31:08;;;;;;;;;51.25;43.50;;;;;11.25;53.00;99095.03;5009867;28;8866;-78
2023/04/11 10:33:41;;;;;;;;;53.50;42.75;;;;;11.23;53.09;99096.84;5007950;28;8876;-77
2023/04/11 10:36:11;;;;;;;;;51.75;41.75;;;;;11.00;53.21;99099.31;5028763;28;8997;-79
2023/04/11 10:38:50;;;;;;;;;42.00;35.50;;;;;11.04;50.71;99100.94;5044307;28;9686;-77
2023/04/11 10:41:30;;;;;;;;;53.00;41.25;;;;;11.40;51.38;99093.69;5069419;28;8849;-79
2023/04/11 10:44:14;;;;;;;;;48.25;40.75;;;;;11.51;51.01;99085.47;5101757;28;8820;-78
2023/04/11 10:46:55;;;;;;;;;48.00;38.50;;;;;11.50;49.96;99092.50;5092724;28;8848;-76
2023/04/11 10:49:37;;;;;;;;;48.25;39.75;;;;;11.81;48.83;99086.22;5048559;28;9008;-78
2023/04/11 10:52:23;;;;;;;;;43.25;38.00;;;;;11.42;49.82;99073.44;5048476;28;8858;-77
2023/04/11 10:54:54;;;;;;;;;49.25;41.00;;;;;11.51;51.19;99077.56;5015613;28;8870;-77
2023/04/11 10:57:23;;;;;;;;;54.25;43.75;;;;;11.50;51.74;99081.09;5048358;28;9724;-80
2023/04/11 11:00:08;;;;;;;;;43.00;35.67;;;;;11.66;51.03;99079.69;5031677;28;8893;-76
2023/04/11 11:02:40;;;;;;;;;49.75;39.50;;;;;11.82;50.39;99068.63;5031618;28;8996;-78
2023/04/11 11:05:22;;;;;;;;;53.25;43.50;;;;;12.18;49.64;99076.22;5048487;28;8854;-77
2023/04/11 11:07:53;;;;;;;;;49.25;38.50;;;;;11.84;49.38;99066.84;5048327;28;8884;-77
2023/04/11 11:10:42;;;;;;;;;40.50;38.00;;;;;11.75;48.71;99057.47;5048240;28;8959;-78
2023/04/11 11:13:10;;;;;;;;;21.20;20.40;;;;;12.01;47.26;99064.47;5048727;28;8885;-80
2023/04/11 11:15:47;;;;;;;;;37.00;35.00;;;;;12.02;47.26;99058.31;5047632;28;8976;-76
2023/04/11 11:18:16;;;;;;;;;35.00;32.40;;;;;12.03;47.01;99065.31;5015140;28;8884;-79
2023/04/11 11:20:47;;;;;;;;;29.20;22.60;;;;;12.08;46.04;99059.88;5050939;28;8834;-76
2023/04/11 11:23:16;;;;;;;;;34.00;30.80;;;;;12.18;46.24;99045.47;5070447;28;8994;-77
2023/04/11 11:25:53;;;;;;;;;41.00;34.80;;;;;12.33;46.15;99044.94;5070569;28;8659;-80
2023/04/11 11:28:22;;;;;;;;;23.00;22.60;;;;;12.33;43.29;99038.78;5071246;28;8870;-76
2023/04/11 11:30:53;;;;;;;;;22.60;19.80;;;;;12.70;41.39;99032.16;5070496;28;8973;-78
2023/04/11 11:33:25;;;;;;;;;28.00;24.20;;;;;12.44;41.20;99033.13;5071129;28;8908;-77
2023/04/11 11:35:58;;;;;;;;;26.40;24.80;;;;;12.61;41.43;99033.34;5070585;28;9627;-78
2023/04/11 11:38:29;;;;;;;;;27.80;26.00;;;;;12.58;41.43;99029.97;5070525;28;9064;-79
2023/04/11 11:40:59;;;;;;;;;21.60;21.60;;;;;12.46;41.81;99028.66;5053128;28;8861;-81
2023/04/11 11:43:28;;;;;;;;;21.80;19.60;;;;;12.64;41.93;99024.47;5093216;28;9037;-76
2023/04/11 11:46:14;;;;;;;;;20.20;20.20;;;;;13.32;40.88;99020.09;5073582;28;8878;-77
2023/04/11 11:48:56;;;;;;;;;24.40;23.40;;;;;13.74;40.63;99008.66;4991837;28;9694;-77